Terminal Aerodrome Forecast
Issued by NWS Boston, MA

Current Version | Previous Version | Text Only | Print | Product List | Glossary On
Versions: 1 2 3 4 5 6 7 8 9 10 11 12 13 14 15 16 17 18 19 20 21 22 23 24
000 FTUS41 KBOX 300535 TAFPVD TAF KPVD 300535Z 3006/0106 31009KT P6SM SCT250 FM301400 06007KT P6SM SCT250 FM301700 11007KT P6SM SCT200 FM010500 14006KT 5SM -DZ OVC025=

USA.gov is the U.S. government's official web portal to all federal, state and local government web resources and services.